sensor_id;sensor_type;location;lat;lon;timestamp;P1;durP1;ratioP1;P2;durP2;ratioP2
12848;SDS011;6493;50.928;7.172;2023-03-23T00:00:29;0.50;;;0.40;;
12848;SDS011;6493;50.928;7.172;2023-03-23T00:05:32;0.40;;;0.40;;
12848;SDS011;6493;50.928;7.172;2023-03-23T00:10:38;0.90;;;0.60;;
12848;SDS011;6493;50.928;7.172;2023-03-23T00:15:40;0.47;;;0.40;;
12848;SDS011;6493;50.928;7.172;2023-03-23T00:20:42;0.40;;;0.40;;
12848;SDS011;6493;50.928;7.172;2023-03-23T00:25:46;0.47;;;0.40;;
12848;SDS011;6493;50.928;7.172;2023-03-23T00:30:53;1.07;;;0.80;;
12848;SDS011;6493;50.928;7.172;2023-03-23T00:35:57;0.50;;;0.43;;
12848;SDS011;6493;50.928;7.172;2023-03-23T00:41:01;1.07;;;0.50;;
12848;SDS011;6493;50.928;7.172;2023-03-23T00:46:04;0.63;;;0.50;;
12848;SDS011;6493;50.928;7.172;2023-03-23T00:51:09;1.57;;;0.40;;
12848;SDS011;6493;50.928;7.172;2023-03-23T00:56:13;1.10;;;0.80;;
12848;SDS011;6493;50.928;7.172;2023-03-23T01:01:15;0.60;;;0.47;;
12848;SDS011;6493;50.928;7.172;2023-03-23T01:06:18;1.63;;;0.70;;
12848;SDS011;6493;50.928;7.172;2023-03-23T01:11:21;0.20;;;0.20;;
12848;SDS011;6493;50.928;7.172;2023-03-23T01:16:25;0.87;;;0.60;;
12848;SDS011;6493;50.928;7.172;2023-03-23T01:21:27;0.50;;;0.50;;
12848;SDS011;6493;50.928;7.172;2023-03-23T01:26:31;0.60;;;0.50;;
12848;SDS011;6493;50.928;7.172;2023-03-23T01:31:33;0.77;;;0.53;;
12848;SDS011;6493;50.928;7.172;2023-03-23T01:36:37;0.40;;;0.40;;
12848;SDS011;6493;50.928;7.172;2023-03-23T01:41:41;0.47;;;0.40;;
12848;SDS011;6493;50.928;7.172;2023-03-23T01:46:46;0.67;;;0.30;;
12848;SDS011;6493;50.928;7.172;2023-03-23T01:51:50;0.60;;;0.30;;
12848;SDS011;6493;50.928;7.172;2023-03-23T01:56:59;0.40;;;0.40;;
12848;SDS011;6493;50.928;7.172;2023-03-23T02:02:05;0.30;;;0.30;;
12848;SDS011;6493;50.928;7.172;2023-03-23T02:07:08;0.40;;;0.40;;
12848;SDS011;6493;50.928;7.172;2023-03-23T02:12:12;0.40;;;0.40;;
12848;SDS011;6493;50.928;7.172;2023-03-23T02:17:16;0.40;;;0.40;;
12848;SDS011;6493;50.928;7.172;2023-03-23T02:22:36;0.40;;;0.40;;
12848;SDS011;6493;50.928;7.172;2023-03-23T02:28:10;0.70;;;0.50;;
12848;SDS011;6493;50.928;7.172;2023-03-23T02:33:33;0.67;;;0.50;;
12848;SDS011;6493;50.928;7.172;2023-03-23T02:38:41;0.30;;;0.30;;
12848;SDS011;6493;50.928;7.172;2023-03-23T02:43:52;1.93;;;0.50;;
12848;SDS011;6493;50.928;7.172;2023-03-23T02:48:58;0.67;;;0.50;;
12848;SDS011;6493;50.928;7.172;2023-03-23T02:54:01;1.53;;;0.70;;
12848;SDS011;6493;50.928;7.172;2023-03-23T02:59:05;0.80;;;0.60;;
12848;SDS011;6493;50.928;7.172;2023-03-23T03:04:11;0.60;;;0.50;;
12848;SDS011;6493;50.928;7.172;2023-03-23T03:09:17;0.60;;;0.40;;
12848;SDS011;6493;50.928;7.172;2023-03-23T03:14:28;0.50;;;0.50;;
12848;SDS011;6493;50.928;7.172;2023-03-23T03:19:37;1.47;;;0.70;;
12848;SDS011;6493;50.928;7.172;2023-03-23T03:24:43;0.40;;;0.40;;
12848;SDS011;6493;50.928;7.172;2023-03-23T03:29:48;0.70;;;0.40;;
12848;SDS011;6493;50.928;7.172;2023-03-23T03:34:56;0.80;;;0.70;;
12848;SDS011;6493;50.928;7.172;2023-03-23T03:40:00;0.70;;;0.30;;
12848;SDS011;6493;50.928;7.172;2023-03-23T03:45:04;0.50;;;0.40;;
12848;SDS011;6493;50.928;7.172;2023-03-23T03:50:09;0.60;;;0.40;;
12848;SDS011;6493;50.928;7.172;2023-03-23T03:55:12;0.80;;;0.60;;
12848;SDS011;6493;50.928;7.172;2023-03-23T04:00:18;0.87;;;0.50;;
12848;SDS011;6493;50.928;7.172;2023-03-23T04:05:24;0.87;;;0.43;;
12848;SDS011;6493;50.928;7.172;2023-03-23T04:10:29;1.00;;;0.43;;
12848;SDS011;6493;50.928;7.172;2023-03-23T04:15:33;0.47;;;0.40;;
12848;SDS011;6493;50.928;7.172;2023-03-23T04:20:37;0.40;;;0.40;;
12848;SDS011;6493;50.928;7.172;2023-03-23T04:25:40;0.70;;;0.40;;
12848;SDS011;6493;50.928;7.172;2023-03-23T04:30:44;0.50;;;0.50;;
12848;SDS011;6493;50.928;7.172;2023-03-23T04:35:51;0.57;;;0.43;;
12848;SDS011;6493;50.928;7.172;2023-03-23T04:41:04;0.40;;;0.40;;
12848;SDS011;6493;50.928;7.172;2023-03-23T04:46:17;0.83;;;0.43;;
12848;SDS011;6493;50.928;7.172;2023-03-23T04:51:24;0.63;;;0.50;;
12848;SDS011;6493;50.928;7.172;2023-03-23T04:56:28;0.70;;;0.50;;
12848;SDS011;6493;50.928;7.172;2023-03-23T05:01:35;0.50;;;0.50;;
12848;SDS011;6493;50.928;7.172;2023-03-23T05:06:52;0.40;;;0.40;;
12848;SDS011;6493;50.928;7.172;2023-03-23T05:12:03;0.50;;;0.50;;
12848;SDS011;6493;50.928;7.172;2023-03-23T05:17:07;0.30;;;0.30;;
12848;SDS011;6493;50.928;7.172;2023-03-23T05:22:11;0.50;;;0.50;;
12848;SDS011;6493;50.928;7.172;2023-03-23T05:27:20;0.50;;;0.50;;
12848;SDS011;6493;50.928;7.172;2023-03-23T05:32:24;0.60;;;0.50;;
12848;SDS011;6493;50.928;7.172;2023-03-23T05:37:35;0.70;;;0.50;;
12848;SDS011;6493;50.928;7.172;2023-03-23T05:42:42;0.60;;;0.50;;
12848;SDS011;6493;50.928;7.172;2023-03-23T05:47:58;0.40;;;0.40;;
12848;SDS011;6493;50.928;7.172;2023-03-23T05:53:04;1.03;;;0.50;;
12848;SDS011;6493;50.928;7.172;2023-03-23T05:58:09;0.50;;;0.50;;
12848;SDS011;6493;50.928;7.172;2023-03-23T06:03:14;0.50;;;0.47;;
12848;SDS011;6493;50.928;7.172;2023-03-23T06:08:28;0.47;;;0.33;;
12848;SDS011;6493;50.928;7.172;2023-03-23T06:13:31;0.57;;;0.57;;
12848;SDS011;6493;50.928;7.172;2023-03-23T06:18:40;0.87;;;0.50;;
12848;SDS011;6493;50.928;7.172;2023-03-23T06:23:53;0.80;;;0.50;;
12848;SDS011;6493;50.928;7.172;2023-03-23T06:28:58;0.50;;;0.40;;
12848;SDS011;6493;50.928;7.172;2023-03-23T06:34:04;0.50;;;0.30;;
12848;SDS011;6493;50.928;7.172;2023-03-23T06:39:27;1.23;;;0.50;;
12848;SDS011;6493;50.928;7.172;2023-03-23T06:44:53;0.57;;;0.50;;
12848;SDS011;6493;50.928;7.172;2023-03-23T06:49:58;0.50;;;0.40;;
12848;SDS011;6493;50.928;7.172;2023-03-23T06:55:04;0.70;;;0.60;;
12848;SDS011;6493;50.928;7.172;2023-03-23T07:00:08;0.73;;;0.60;;
12848;SDS011;6493;50.928;7.172;2023-03-23T07:05:14;0.90;;;0.40;;
12848;SDS011;6493;50.928;7.172;2023-03-23T07:10:19;1.20;;;0.60;;
12848;SDS011;6493;50.928;7.172;2023-03-23T07:15:21;0.60;;;0.50;;
12848;SDS011;6493;50.928;7.172;2023-03-23T07:20:26;0.40;;;0.40;;
12848;SDS011;6493;50.928;7.172;2023-03-23T07:25:30;0.43;;;0.43;;
12848;SDS011;6493;50.928;7.172;2023-03-23T07:30:34;0.60;;;0.50;;
12848;SDS011;6493;50.928;7.172;2023-03-23T07:35:37;0.70;;;0.50;;
12848;SDS011;6493;50.928;7.172;2023-03-23T07:40:49;0.70;;;0.50;;
12848;SDS011;6493;50.928;7.172;2023-03-23T07:45:54;0.63;;;0.53;;
12848;SDS011;6493;50.928;7.172;2023-03-23T07:51:01;0.70;;;0.67;;
12848;SDS011;6493;50.928;7.172;2023-03-23T07:56:07;0.60;;;0.30;;
12848;SDS011;6493;50.928;7.172;2023-03-23T08:01:22;0.73;;;0.50;;
12848;SDS011;6493;50.928;7.172;2023-03-23T08:06:45;0.93;;;0.63;;
12848;SDS011;6493;50.928;7.172;2023-03-23T08:12:03;0.50;;;0.50;;
12848;SDS011;6493;50.928;7.172;2023-03-23T08:17:24;1.10;;;0.60;;
12848;SDS011;6493;50.928;7.172;2023-03-23T08:22:48;0.30;;;0.30;;
12848;SDS011;6493;50.928;7.172;2023-03-23T08:28:14;0.93;;;0.50;;
12848;SDS011;6493;50.928;7.172;2023-03-23T08:33:35;1.97;;;0.90;;
12848;SDS011;6493;50.928;7.172;2023-03-23T08:38:52;1.10;;;0.77;;
12848;SDS011;6493;50.928;7.172;2023-03-23T08:44:16;3.57;;;2.43;;
12848;SDS011;6493;50.928;7.172;2023-03-23T08:49:31;1.87;;;1.40;;
12848;SDS011;6493;50.928;7.172;2023-03-23T08:54:55;2.07;;;1.03;;
12848;SDS011;6493;50.928;7.172;2023-03-23T09:00:07;0.87;;;0.60;;
12848;SDS011;6493;50.928;7.172;2023-03-23T09:05:38;0.70;;;0.50;;
12848;SDS011;6493;50.928;7.172;2023-03-23T09:10:58;1.37;;;0.63;;
12848;SDS011;6493;50.928;7.172;2023-03-23T09:16:01;1.43;;;0.93;;
12848;SDS011;6493;50.928;7.172;2023-03-23T09:21:05;1.00;;;0.60;;
12848;SDS011;6493;50.928;7.172;2023-03-23T09:26:08;1.13;;;0.60;;
12848;SDS011;6493;50.928;7.172;2023-03-23T09:31:12;1.83;;;0.77;;
12848;SDS011;6493;50.928;7.172;2023-03-23T09:36:14;1.03;;;0.60;;
12848;SDS011;6493;50.928;7.172;2023-03-23T09:41:23;1.50;;;0.90;;
12848;SDS011;6493;50.928;7.172;2023-03-23T09:46:55;2.00;;;1.23;;
12848;SDS011;6493;50.928;7.172;2023-03-23T09:52:04;1.90;;;1.13;;
12848;SDS011;6493;50.928;7.172;2023-03-23T09:57:12;1.93;;;1.30;;
12848;SDS011;6493;50.928;7.172;2023-03-23T10:02:23;2.30;;;0.83;;
12848;SDS011;6493;50.928;7.172;2023-03-23T10:07:28;2.40;;;1.10;;
12848;SDS011;6493;50.928;7.172;2023-03-23T10:12:33;2.50;;;1.10;;
12848;SDS011;6493;50.928;7.172;2023-03-23T10:17:45;1.67;;;0.83;;
12848;SDS011;6493;50.928;7.172;2023-03-23T10:22:52;1.60;;;0.80;;
12848;SDS011;6493;50.928;7.172;2023-03-23T10:28:01;0.80;;;0.67;;
12848;SDS011;6493;50.928;7.172;2023-03-23T10:33:13;1.20;;;1.10;;
12848;SDS011;6493;50.928;7.172;2023-03-23T10:38:20;1.03;;;0.70;;
12848;SDS011;6493;50.928;7.172;2023-03-23T10:43:25;1.83;;;0.70;;
12848;SDS011;6493;50.928;7.172;2023-03-23T10:48:30;0.37;;;0.37;;
12848;SDS011;6493;50.928;7.172;2023-03-23T10:53:38;1.23;;;0.37;;
12848;SDS011;6493;50.928;7.172;2023-03-23T10:58:45;0.60;;;0.40;;
12848;SDS011;6493;50.928;7.172;2023-03-23T11:03:49;0.53;;;0.40;;
12848;SDS011;6493;50.928;7.172;2023-03-23T11:08:52;0.97;;;0.57;;
12848;SDS011;6493;50.928;7.172;2023-03-23T11:13:58;0.50;;;0.37;;
12848;SDS011;6493;50.928;7.172;2023-03-23T11:19:12;0.60;;;0.40;;
12848;SDS011;6493;50.928;7.172;2023-03-23T11:24:16;0.80;;;0.47;;
12848;SDS011;6493;50.928;7.172;2023-03-23T11:29:18;1.17;;;1.00;;
12848;SDS011;6493;50.928;7.172;2023-03-23T11:34:29;1.80;;;1.40;;
12848;SDS011;6493;50.928;7.172;2023-03-23T11:39:35;3.13;;;2.53;;
12848;SDS011;6493;50.928;7.172;2023-03-23T11:44:48;2.20;;;1.97;;
12848;SDS011;6493;50.928;7.172;2023-03-23T11:49:54;2.10;;;1.90;;
12848;SDS011;6493;50.928;7.172;2023-03-23T11:55:03;1.30;;;1.20;;
12848;SDS011;6493;50.928;7.172;2023-03-23T12:00:13;0.60;;;0.60;;
12848;SDS011;6493;50.928;7.172;2023-03-23T12:10:47;1.13;;;0.87;;
12848;SDS011;6493;50.928;7.172;2023-03-23T12:15:58;2.20;;;1.50;;
12848;SDS011;6493;50.928;7.172;2023-03-23T12:21:14;3.17;;;2.00;;
12848;SDS011;6493;50.928;7.172;2023-03-23T12:26:23;1.23;;;0.80;;
12848;SDS011;6493;50.928;7.172;2023-03-23T12:31:31;0.77;;;0.50;;
12848;SDS011;6493;50.928;7.172;2023-03-23T12:36:44;0.73;;;0.60;;
12848;SDS011;6493;50.928;7.172;2023-03-23T12:41:57;1.40;;;1.23;;
12848;SDS011;6493;50.928;7.172;2023-03-23T12:47:07;0.70;;;0.70;;
12848;SDS011;6493;50.928;7.172;2023-03-23T12:52:22;1.07;;;0.90;;
12848;SDS011;6493;50.928;7.172;2023-03-23T12:57:30;1.07;;;0.70;;
12848;SDS011;6493;50.928;7.172;2023-03-23T13:02:40;1.93;;;0.60;;
12848;SDS011;6493;50.928;7.172;2023-03-23T13:07:48;2.63;;;0.80;;
12848;SDS011;6493;50.928;7.172;2023-03-23T13:12:55;2.30;;;0.90;;
12848;SDS011;6493;50.928;7.172;2023-03-23T13:18:00;0.70;;;0.60;;
12848;SDS011;6493;50.928;7.172;2023-03-23T13:23:11;1.20;;;0.70;;
12848;SDS011;6493;50.928;7.172;2023-03-23T13:28:19;1.40;;;1.03;;
12848;SDS011;6493;50.928;7.172;2023-03-23T13:33:28;1.73;;;0.87;;
12848;SDS011;6493;50.928;7.172;2023-03-23T13:38:35;1.80;;;1.20;;
12848;SDS011;6493;50.928;7.172;2023-03-23T13:43:40;1.90;;;1.00;;
12848;SDS011;6493;50.928;7.172;2023-03-23T13:48:43;0.93;;;0.83;;
12848;SDS011;6493;50.928;7.172;2023-03-23T13:53:49;3.23;;;1.90;;
12848;SDS011;6493;50.928;7.172;2023-03-23T13:58:52;1.17;;;1.03;;
12848;SDS011;6493;50.928;7.172;2023-03-23T14:04:09;1.00;;;0.70;;
12848;SDS011;6493;50.928;7.172;2023-03-23T14:09:16;0.90;;;0.50;;
12848;SDS011;6493;50.928;7.172;2023-03-23T14:14:26;0.90;;;0.60;;
12848;SDS011;6493;50.928;7.172;2023-03-23T14:19:31;1.50;;;0.70;;
12848;SDS011;6493;50.928;7.172;2023-03-23T14:24:39;0.70;;;0.70;;
12848;SDS011;6493;50.928;7.172;2023-03-23T14:29:42;0.60;;;0.50;;
12848;SDS011;6493;50.928;7.172;2023-03-23T14:34:46;2.20;;;0.80;;
12848;SDS011;6493;50.928;7.172;2023-03-23T14:39:52;1.20;;;1.00;;
12848;SDS011;6493;50.928;7.172;2023-03-23T14:44:55;2.27;;;1.40;;
12848;SDS011;6493;50.928;7.172;2023-03-23T14:50:03;1.43;;;1.00;;
12848;SDS011;6493;50.928;7.172;2023-03-23T14:55:13;4.20;;;3.37;;
12848;SDS011;6493;50.928;7.172;2023-03-23T15:00:19;4.77;;;3.77;;
12848;SDS011;6493;50.928;7.172;2023-03-23T15:05:25;2.93;;;2.40;;
12848;SDS011;6493;50.928;7.172;2023-03-23T15:10:33;2.50;;;1.40;;
12848;SDS011;6493;50.928;7.172;2023-03-23T15:15:35;1.77;;;1.50;;
12848;SDS011;6493;50.928;7.172;2023-03-23T15:20:45;1.20;;;1.10;;
12848;SDS011;6493;50.928;7.172;2023-03-23T15:25:51;1.53;;;1.00;;
12848;SDS011;6493;50.928;7.172;2023-03-23T15:30:55;2.67;;;1.30;;
12848;SDS011;6493;50.928;7.172;2023-03-23T15:35:58;2.33;;;1.23;;
12848;SDS011;6493;50.928;7.172;2023-03-23T15:41:21;1.93;;;1.73;;
12848;SDS011;6493;50.928;7.172;2023-03-23T15:46:26;2.53;;;1.10;;
12848;SDS011;6493;50.928;7.172;2023-03-23T15:51:29;3.00;;;1.73;;
12848;SDS011;6493;50.928;7.172;2023-03-23T15:56:34;2.47;;;1.63;;
12848;SDS011;6493;50.928;7.172;2023-03-23T16:01:37;1.17;;;0.90;;
12848;SDS011;6493;50.928;7.172;2023-03-23T16:06:43;1.83;;;1.20;;
12848;SDS011;6493;50.928;7.172;2023-03-23T16:11:48;5.00;;;2.40;;
12848;SDS011;6493;50.928;7.172;2023-03-23T16:16:51;2.67;;;2.10;;
12848;SDS011;6493;50.928;7.172;2023-03-23T16:21:55;1.83;;;1.23;;
12848;SDS011;6493;50.928;7.172;2023-03-23T16:27:00;1.53;;;0.90;;
12848;SDS011;6493;50.928;7.172;2023-03-23T16:32:03;1.80;;;1.03;;
12848;SDS011;6493;50.928;7.172;2023-03-23T16:37:08;1.97;;;1.17;;
12848;SDS011;6493;50.928;7.172;2023-03-23T16:42:13;1.10;;;0.80;;
12848;SDS011;6493;50.928;7.172;2023-03-23T16:47:17;1.40;;;0.67;;
12848;SDS011;6493;50.928;7.172;2023-03-23T16:52:23;1.47;;;0.87;;
12848;SDS011;6493;50.928;7.172;2023-03-23T16:58:42;0.50;;;0.50;;
12848;SDS011;6493;50.928;7.172;2023-03-23T17:05:19;0.97;;;0.57;;
12848;SDS011;6493;50.928;7.172;2023-03-23T17:10:25;1.47;;;0.70;;
12848;SDS011;6493;50.928;7.172;2023-03-23T17:15:30;1.07;;;0.60;;
12848;SDS011;6493;50.928;7.172;2023-03-23T17:20:34;1.00;;;0.77;;
12848;SDS011;6493;50.928;7.172;2023-03-23T17:25:38;1.13;;;0.80;;
12848;SDS011;6493;50.928;7.172;2023-03-23T17:30:44;1.40;;;1.00;;
12848;SDS011;6493;50.928;7.172;2023-03-23T17:35:47;1.43;;;0.77;;
12848;SDS011;6493;50.928;7.172;2023-03-23T17:40:56;1.27;;;0.90;;
12848;SDS011;6493;50.928;7.172;2023-03-23T17:46:00;1.83;;;0.93;;
12848;SDS011;6493;50.928;7.172;2023-03-23T17:51:04;1.93;;;0.90;;
12848;SDS011;6493;50.928;7.172;2023-03-23T17:56:08;1.10;;;0.70;;
12848;SDS011;6493;50.928;7.172;2023-03-23T18:01:13;1.23;;;0.80;;
12848;SDS011;6493;50.928;7.172;2023-03-23T18:06:17;0.67;;;0.67;;
12848;SDS011;6493;50.928;7.172;2023-03-23T18:11:21;0.80;;;0.63;;
12848;SDS011;6493;50.928;7.172;2023-03-23T18:16:25;0.83;;;0.70;;
12848;SDS011;6493;50.928;7.172;2023-03-23T18:21:29;1.53;;;0.90;;
12848;SDS011;6493;50.928;7.172;2023-03-23T18:26:32;1.53;;;0.87;;
12848;SDS011;6493;50.928;7.172;2023-03-23T18:31:37;1.07;;;0.77;;
12848;SDS011;6493;50.928;7.172;2023-03-23T18:36:41;1.43;;;1.00;;
12848;SDS011;6493;50.928;7.172;2023-03-23T18:41:44;1.73;;;0.90;;
12848;SDS011;6493;50.928;7.172;2023-03-23T18:46:49;1.20;;;0.90;;
12848;SDS011;6493;50.928;7.172;2023-03-23T18:51:53;1.10;;;0.60;;
12848;SDS011;6493;50.928;7.172;2023-03-23T18:56:56;1.10;;;0.60;;
12848;SDS011;6493;50.928;7.172;2023-03-23T19:02:02;1.93;;;1.07;;
12848;SDS011;6493;50.928;7.172;2023-03-23T19:07:07;1.93;;;0.90;;
12848;SDS011;6493;50.928;7.172;2023-03-23T19:12:11;2.00;;;1.03;;
12848;SDS011;6493;50.928;7.172;2023-03-23T19:17:17;3.23;;;1.30;;
12848;SDS011;6493;50.928;7.172;2023-03-23T19:22:20;1.33;;;0.90;;
12848;SDS011;6493;50.928;7.172;2023-03-23T19:27:24;1.47;;;1.23;;
12848;SDS011;6493;50.928;7.172;2023-03-23T19:32:28;1.10;;;1.00;;
12848;SDS011;6493;50.928;7.172;2023-03-23T19:37:32;2.37;;;0.80;;
12848;SDS011;6493;50.928;7.172;2023-03-23T19:42:35;1.70;;;0.90;;
12848;SDS011;6493;50.928;7.172;2023-03-23T19:47:42;1.07;;;0.87;;
12848;SDS011;6493;50.928;7.172;2023-03-23T19:52:46;1.37;;;0.83;;
12848;SDS011;6493;50.928;7.172;2023-03-23T19:57:49;1.17;;;0.60;;
12848;SDS011;6493;50.928;7.172;2023-03-23T20:02:54;1.77;;;0.80;;
12848;SDS011;6493;50.928;7.172;2023-03-23T20:07:58;2.57;;;1.03;;
12848;SDS011;6493;50.928;7.172;2023-03-23T20:13:03;0.70;;;0.50;;
12848;SDS011;6493;50.928;7.172;2023-03-23T20:18:09;2.07;;;0.87;;
12848;SDS011;6493;50.928;7.172;2023-03-23T20:23:19;1.97;;;1.00;;
12848;SDS011;6493;50.928;7.172;2023-03-23T20:28:23;1.40;;;0.90;;
12848;SDS011;6493;50.928;7.172;2023-03-23T20:33:27;1.70;;;0.80;;
12848;SDS011;6493;50.928;7.172;2023-03-23T20:38:32;0.70;;;0.60;;
12848;SDS011;6493;50.928;7.172;2023-03-23T20:43:36;1.43;;;0.80;;
12848;SDS011;6493;50.928;7.172;2023-03-23T20:48:42;1.33;;;0.97;;
12848;SDS011;6493;50.928;7.172;2023-03-23T20:53:46;1.90;;;1.37;;
12848;SDS011;6493;50.928;7.172;2023-03-23T20:58:50;1.77;;;1.00;;
12848;SDS011;6493;50.928;7.172;2023-03-23T21:03:55;2.00;;;1.30;;
12848;SDS011;6493;50.928;7.172;2023-03-23T21:09:00;1.67;;;1.00;;
12848;SDS011;6493;50.928;7.172;2023-03-23T21:14:05;0.97;;;0.63;;
12848;SDS011;6493;50.928;7.172;2023-03-23T21:19:10;1.00;;;0.60;;
12848;SDS011;6493;50.928;7.172;2023-03-23T21:24:14;0.83;;;0.70;;
12848;SDS011;6493;50.928;7.172;2023-03-23T21:29:17;1.03;;;0.83;;
12848;SDS011;6493;50.928;7.172;2023-03-23T21:34:23;0.97;;;0.70;;
12848;SDS011;6493;50.928;7.172;2023-03-23T21:39:27;1.03;;;0.90;;
12848;SDS011;6493;50.928;7.172;2023-03-23T21:44:32;1.73;;;0.60;;
12848;SDS011;6493;50.928;7.172;2023-03-23T21:49:38;1.07;;;0.60;;
12848;SDS011;6493;50.928;7.172;2023-03-23T21:54:42;1.17;;;0.70;;
12848;SDS011;6493;50.928;7.172;2023-03-23T21:59:46;0.83;;;0.47;;
12848;SDS011;6493;50.928;7.172;2023-03-23T22:04:50;1.93;;;0.57;;
12848;SDS011;6493;50.928;7.172;2023-03-23T22:09:56;0.97;;;0.77;;
12848;SDS011;6493;50.928;7.172;2023-03-23T22:15:00;0.93;;;0.50;;
12848;SDS011;6493;50.928;7.172;2023-03-23T22:20:06;0.77;;;0.40;;
12848;SDS011;6493;50.928;7.172;2023-03-23T22:25:11;1.13;;;0.63;;
12848;SDS011;6493;50.928;7.172;2023-03-23T22:30:15;0.53;;;0.33;;
12848;SDS011;6493;50.928;7.172;2023-03-23T22:35:20;0.40;;;0.40;;
12848;SDS011;6493;50.928;7.172;2023-03-23T22:40:24;0.60;;;0.50;;
12848;SDS011;6493;50.928;7.172;2023-03-23T22:45:27;0.50;;;0.50;;
12848;SDS011;6493;50.928;7.172;2023-03-23T22:50:33;0.60;;;0.40;;
12848;SDS011;6493;50.928;7.172;2023-03-23T22:55:39;0.73;;;0.50;;
12848;SDS011;6493;50.928;7.172;2023-03-23T23:00:44;0.70;;;0.40;;
12848;SDS011;6493;50.928;7.172;2023-03-23T23:05:54;0.33;;;0.33;;
12848;SDS011;6493;50.928;7.172;2023-03-23T23:11:00;0.70;;;0.50;;
12848;SDS011;6493;50.928;7.172;2023-03-23T23:16:06;1.30;;;0.40;;
12848;SDS011;6493;50.928;7.172;2023-03-23T23:21:14;0.63;;;0.40;;
12848;SDS011;6493;50.928;7.172;2023-03-23T23:26:18;0.30;;;0.30;;
12848;SDS011;6493;50.928;7.172;2023-03-23T23:31:23;0.73;;;0.30;;
12848;SDS011;6493;50.928;7.172;2023-03-23T23:36:29;0.20;;;0.20;;
12848;SDS011;6493;50.928;7.172;2023-03-23T23:41:33;2.10;;;0.70;;
12848;SDS011;6493;50.928;7.172;2023-03-23T23:46:37;0.50;;;0.50;;
12848;SDS011;6493;50.928;7.172;2023-03-23T23:51:42;0.50;;;0.50;;
12848;SDS011;6493;50.928;7.172;2023-03-23T23:56:46;0.77;;;0.60;;
